createdAt,value
2023-02-16T00:00:25.154Z,59.48
2023-02-16T00:03:17.455Z,58.19
2023-02-16T00:05:47.684Z,57.71
2023-02-16T00:08:17.072Z,56.81
2023-02-16T00:11:08.322Z,58.37
2023-02-16T00:13:45.450Z,59.43
2023-02-16T00:16:18.388Z,59.80
2023-02-16T00:18:48.385Z,58.02
2023-02-16T00:21:18.809Z,58.61
2023-02-16T00:23:48.881Z,59.45
2023-02-16T00:26:20.496Z,58.56
2023-02-16T00:28:52.333Z,59.60
2023-02-16T00:31:27.502Z,59.67
2023-02-16T00:33:57.811Z,60.35
2023-02-16T00:36:27.695Z,58.28
2023-02-16T00:38:57.018Z,58.97
2023-02-16T00:41:44.823Z,60.67
2023-02-16T00:44:18.556Z,60.16
2023-02-16T00:46:49.866Z,60.65
2023-02-16T00:49:20.971Z,58.14
2023-02-16T00:51:51.318Z,58.70
2023-02-16T00:54:21.182Z,58.36
2023-02-16T00:56:51.161Z,57.60
2023-02-16T00:59:23.664Z,56.95
2023-02-16T01:01:54.722Z,56.99
2023-02-16T01:04:25.729Z,56.31
2023-02-16T01:07:12.672Z,57.31
2023-02-16T01:09:59.454Z,59.12
2023-02-16T01:12:30.901Z,59.52
2023-02-16T01:15:00.826Z,61.46
2023-02-16T01:17:34.362Z,62.23
2023-02-16T01:20:04.121Z,60.46
2023-02-16T01:22:36.673Z,59.53
2023-02-16T01:25:06.218Z,59.62
2023-02-16T01:27:37.858Z,60.02
2023-02-16T01:30:12.533Z,60.03
2023-02-16T01:32:43.656Z,59.58
2023-02-16T01:35:13.070Z,59.93
2023-02-16T01:37:42.803Z,58.96
2023-02-16T01:40:24.778Z,58.84
2023-02-16T01:43:02.828Z,60.68
2023-02-16T01:45:36.163Z,60.59
2023-02-16T01:48:12.702Z,59.73
2023-02-16T01:50:49.972Z,60.37
2023-02-16T01:53:28.176Z,59.78
2023-02-16T01:56:03.038Z,59.10
2023-02-16T01:58:38.641Z,59.65
2023-02-16T02:01:43.270Z,61.14
2023-02-16T02:04:48.168Z,61.47
2023-02-16T02:07:26.122Z,60.49
2023-02-16T02:10:03.225Z,60.02
2023-02-16T02:12:41.023Z,61.47
2023-02-16T02:15:12.603Z,59.73
2023-02-16T02:17:41.899Z,58.76
2023-02-16T02:20:21.122Z,57.44
2023-02-16T02:23:34.167Z,56.93
2023-02-16T02:26:44.920Z,55.24
2023-02-16T02:29:43.488Z,55.36
2023-02-16T02:32:24.317Z,56.64
2023-02-16T02:35:04.932Z,57.18
2023-02-16T02:37:46.766Z,57.70
2023-02-16T02:40:28.212Z,58.50
2023-02-16T02:43:06.080Z,58.85
2023-02-16T02:45:43.231Z,57.85
2023-02-16T02:48:12.851Z,57.74
2023-02-16T02:51:07.642Z,58.09
2023-02-16T02:53:41.116Z,58.85
2023-02-16T02:56:31.280Z,58.68
2023-02-16T02:59:23.245Z,58.66
2023-02-16T03:01:59.388Z,58.38
2023-02-16T03:04:31.956Z,57.50
2023-02-16T03:07:04.447Z,57.41
2023-02-16T03:09:33.975Z,58.79
2023-02-16T03:12:22.788Z,58.42
2023-02-16T03:14:55.844Z,58.90
2023-02-16T03:17:51.312Z,59.23
2023-02-16T03:20:39.008Z,61.01
2023-02-16T03:23:27.110Z,61.54
2023-02-16T03:26:14.526Z,60.32
2023-02-16T03:29:03.475Z,60.84
2023-02-16T03:36:41.040Z,58.69
2023-02-16T03:39:10.852Z,57.55
2023-02-16T03:41:43.465Z,58.97
2023-02-16T03:44:13.090Z,59.56
2023-02-16T03:46:43.311Z,59.40
2023-02-16T03:49:12.793Z,59.54
2023-02-16T03:51:43.683Z,61.20
2023-02-16T03:54:13.470Z,61.09
2023-02-16T03:56:43.011Z,58.70
2023-02-16T03:59:12.163Z,59.93
2023-02-16T04:01:41.735Z,60.56
2023-02-16T04:04:11.096Z,60.55
2023-02-16T04:06:42.743Z,61.65
2023-02-16T04:09:12.150Z,59.35
2023-02-16T04:11:59.247Z,59.07
2023-02-16T04:14:28.616Z,60.25
2023-02-16T04:16:58.112Z,59.27
2023-02-16T04:19:27.329Z,61.39
2023-02-16T04:21:58.350Z,59.87
2023-02-16T04:24:27.564Z,58.36
2023-02-16T04:26:57.172Z,58.59
2023-02-16T04:29:26.573Z,58.32
2023-02-16T04:31:56.162Z,56.52
2023-02-16T04:34:25.416Z,56.89
2023-02-16T04:36:54.908Z,57.31
2023-02-16T04:39:25.557Z,56.29
2023-02-16T04:41:55.042Z,55.29
2023-02-16T04:44:24.309Z,55.55
2023-02-16T04:46:53.832Z,57.38
2023-02-16T04:49:23.220Z,57.51
2023-02-16T04:51:52.693Z,56.92
2023-02-16T04:54:21.920Z,56.92
2023-02-16T04:56:52.838Z,56.24
2023-02-16T04:59:22.048Z,56.29
2023-02-16T05:01:51.714Z,54.73
2023-02-16T05:04:21.049Z,54.16
2023-02-16T05:06:50.498Z,55.90
2023-02-16T05:09:20.199Z,54.98
2023-02-16T05:12:08.359Z,54.87
2023-02-16T05:14:45.182Z,56.88
2023-02-16T05:17:17.724Z,55.75
2023-02-16T05:19:49.298Z,58.12
2023-02-16T05:22:19.044Z,57.02
2023-02-16T05:24:48.671Z,58.24
2023-02-16T05:27:21.619Z,57.29
2023-02-16T05:29:51.262Z,55.44
2023-02-16T05:32:21.184Z,55.97
2023-02-16T05:34:50.416Z,58.00
2023-02-16T05:37:20.516Z,57.18
2023-02-16T05:39:49.935Z,55.36
2023-02-16T05:42:20.769Z,57.39
2023-02-16T05:44:49.959Z,57.71
2023-02-16T05:47:19.424Z,58.49
2023-02-16T05:49:48.824Z,58.87
2023-02-16T05:52:18.377Z,58.88
2023-02-16T05:54:47.625Z,57.57
2023-02-16T05:57:17.103Z,58.40
2023-02-16T05:59:47.864Z,56.28
2023-02-16T06:02:17.510Z,58.65
2023-02-16T06:04:46.672Z,58.40
2023-02-16T06:07:16.144Z,58.71
2023-02-16T06:09:45.362Z,56.93
2023-02-16T06:12:14.873Z,57.66
2023-02-16T06:14:44.294Z,57.61
2023-02-16T06:17:15.419Z,57.60
2023-02-16T06:19:44.639Z,56.10
2023-02-16T06:22:14.152Z,57.61
2023-02-16T06:24:43.526Z,56.37
2023-02-16T06:27:13.029Z,55.92
2023-02-16T06:29:42.440Z,56.34
2023-02-16T06:32:12.129Z,57.24
2023-02-16T06:34:42.707Z,55.46
2023-02-16T06:37:12.364Z,55.37
2023-02-16T06:39:41.575Z,55.05
2023-02-16T06:42:11.180Z,55.51
2023-02-16T06:44:44.334Z,55.63
2023-02-16T06:47:14.003Z,56.06
2023-02-16T06:49:44.509Z,57.12
2023-02-16T06:52:14.129Z,56.68
2023-02-16T06:54:43.312Z,56.28
2023-02-16T06:57:12.799Z,55.38
2023-02-16T06:59:42.514Z,54.08
2023-02-16T07:02:12.485Z,53.37
2023-02-16T07:04:43.075Z,53.04
2023-02-16T07:07:12.571Z,55.32
2023-02-16T07:09:41.776Z,55.09
2023-02-16T07:12:11.363Z,55.41
2023-02-16T07:14:41.624Z,54.91
2023-02-16T07:17:12.616Z,55.33
2023-02-16T07:19:43.237Z,57.33
2023-02-16T07:22:12.798Z,56.02
2023-02-16T07:24:42.051Z,57.53
2023-02-16T07:27:11.691Z,56.29
2023-02-16T07:29:41.121Z,57.51
2023-02-16T07:32:10.706Z,57.08
2023-02-16T07:34:40.036Z,56.56
2023-02-16T07:37:10.918Z,55.91
2023-02-16T07:39:40.175Z,57.94
2023-02-16T07:42:09.676Z,56.75
2023-02-16T07:44:38.958Z,58.22
2023-02-16T07:47:08.520Z,56.00
2023-02-16T07:49:37.664Z,58.11
2023-02-16T07:52:07.690Z,55.76
2023-02-16T07:54:38.342Z,56.43
2023-02-16T07:57:08.407Z,56.94
2023-02-16T07:59:37.625Z,55.29
2023-02-16T08:02:07.550Z,56.59
2023-02-16T08:04:37.101Z,57.59
2023-02-16T08:07:06.556Z,56.34
2023-02-16T08:09:37.120Z,55.58
2023-02-16T08:12:09.088Z,59.63
2023-02-16T08:14:38.426Z,57.33
2023-02-16T08:17:08.891Z,55.60
2023-02-16T08:19:38.249Z,55.36
2023-02-16T08:22:09.153Z,54.92
2023-02-16T08:24:40.049Z,57.26
2023-02-16T08:27:09.559Z,56.76
2023-02-16T08:29:38.800Z,54.83
2023-02-16T08:32:08.970Z,53.88
2023-02-16T08:34:41.535Z,53.18
2023-02-16T08:37:14.439Z,53.12
2023-02-16T08:39:45.693Z,53.42
2023-02-16T08:42:15.235Z,52.90
2023-02-16T08:44:44.749Z,53.04
2023-02-16T08:47:16.940Z,51.97
2023-02-16T08:49:46.244Z,52.04
2023-02-16T08:52:15.828Z,50.88
2023-02-16T08:54:46.430Z,50.41
2023-02-16T08:57:16.080Z,50.59
2023-02-16T08:59:45.261Z,51.31
2023-02-16T09:02:14.808Z,50.99
2023-02-16T09:04:44.100Z,50.08
2023-02-16T09:07:14.066Z,50.30
2023-02-16T09:09:44.570Z,52.30
2023-02-16T09:12:15.782Z,51.07
2023-02-16T09:14:44.986Z,51.02
2023-02-16T09:17:14.525Z,51.01
2023-02-16T09:19:44.695Z,49.74
2023-02-16T09:22:14.404Z,48.62
2023-02-16T09:24:43.846Z,47.71
2023-02-16T09:27:15.052Z,47.41
2023-02-16T09:29:44.683Z,49.38
2023-02-16T09:32:15.498Z,47.65
2023-02-16T09:34:46.340Z,46.68
2023-02-16T09:37:15.953Z,46.68
2023-02-16T09:39:45.123Z,45.95
2023-02-16T09:42:30.577Z,46.58
2023-02-16T09:45:07.512Z,46.66
2023-02-16T09:47:40.916Z,45.48
2023-02-16T09:50:38.341Z,44.10
2023-02-16T09:53:16.418Z,43.82
2023-02-16T09:55:54.548Z,42.73
2023-02-16T09:58:31.565Z,42.26
2023-02-16T10:01:08.599Z,46.42
2023-02-16T10:03:51.581Z,46.71
2023-02-16T10:06:35.090Z,46.81
2023-02-16T10:09:08.999Z,46.30
2023-02-16T10:11:46.773Z,46.27
2023-02-16T10:14:31.797Z,43.92
2023-02-16T10:17:12.446Z,45.31
2023-02-16T10:19:48.022Z,44.60
2023-02-16T10:22:22.563Z,41.52
2023-02-16T10:25:00.511Z,42.98
2023-02-16T10:27:38.351Z,44.84
2023-02-16T10:30:18.096Z,42.56
2023-02-16T10:32:57.681Z,41.62
2023-02-16T10:35:38.187Z,41.21
2023-02-16T10:38:13.752Z,40.19
2023-02-16T10:40:55.081Z,40.73
2023-02-16T10:43:38.864Z,38.74
2023-02-16T10:46:17.053Z,38.79
2023-02-16T10:48:47.699Z,39.51
2023-02-16T10:51:20.582Z,40.62
2023-02-16T10:53:54.691Z,39.16
2023-02-16T10:56:42.696Z,38.49
2023-02-16T10:59:17.765Z,39.37
2023-02-16T11:01:52.107Z,37.61
2023-02-16T11:04:39.929Z,36.82
2023-02-16T11:07:12.221Z,35.82
2023-02-16T11:09:43.192Z,35.68
2023-02-16T11:12:19.374Z,36.19
2023-02-16T11:14:53.686Z,36.85
2023-02-16T11:17:26.273Z,33.60
2023-02-16T11:20:01.636Z,36.38
2023-02-16T11:22:35.005Z,35.96
2023-02-16T11:25:25.710Z,33.65
2023-02-16T11:27:57.307Z,31.42
2023-02-16T11:30:35.279Z,29.91
2023-02-16T11:33:21.912Z,32.56
2023-02-16T11:35:51.351Z,32.02
2023-02-16T11:38:32.997Z,33.15
2023-02-16T11:41:04.621Z,33.47
2023-02-16T11:43:38.882Z,33.67
2023-02-16T11:46:16.856Z,33.85
2023-02-16T11:48:48.464Z,30.70
2023-02-16T11:51:30.664Z,24.64
2023-02-16T11:54:03.946Z,22.96
2023-02-16T11:56:35.315Z,21.99
2023-02-16T11:59:08.517Z,20.72
2023-02-16T12:02:29.317Z,21.35
2023-02-16T12:05:17.015Z,23.36
2023-02-16T12:07:58.342Z,22.59
2023-02-16T12:10:38.745Z,27.07
2023-02-16T12:13:19.486Z,27.39
2023-02-16T12:15:55.981Z,28.65
2023-02-16T12:18:37.825Z,28.05
2023-02-16T12:21:19.403Z,23.91
2023-02-16T12:24:03.228Z,25.78
2023-02-16T12:26:41.633Z,25.16
2023-02-16T12:29:31.522Z,28.56
2023-02-16T12:32:16.054Z,32.52
2023-02-16T12:34:59.794Z,30.35
2023-02-16T12:37:38.190Z,28.99
2023-02-16T12:40:18.340Z,28.35
2023-02-16T12:43:04.191Z,26.54
2023-02-16T12:45:37.526Z,30.62
2023-02-16T12:48:29.667Z,32.38
2023-02-16T12:51:00.251Z,28.49
2023-02-16T12:53:39.760Z,27.05
2023-02-16T12:56:13.840Z,27.53
2023-02-16T12:58:46.592Z,28.61
2023-02-16T13:01:21.857Z,25.71
2023-02-16T13:03:56.624Z,28.11
2023-02-16T13:06:32.875Z,30.72
2023-02-16T13:09:12.758Z,30.90
2023-02-16T13:11:49.619Z,32.41
2023-02-16T13:14:22.236Z,32.42
2023-02-16T13:16:56.095Z,30.93
2023-02-16T13:19:25.910Z,28.49
2023-02-16T13:22:23.029Z,28.10
2023-02-16T13:25:08.024Z,32.68
2023-02-16T13:27:48.006Z,33.92
2023-02-16T13:30:45.906Z,34.20
2023-02-16T13:33:37.089Z,32.98
2023-02-16T13:36:26.468Z,32.94
2023-02-16T13:39:43.564Z,32.34
2023-02-16T13:42:49.149Z,34.62
2023-02-16T13:45:22.329Z,35.06
2023-02-16T13:47:55.158Z,33.40
2023-02-16T13:50:31.261Z,33.17
2023-02-16T13:53:16.956Z,33.41
2023-02-16T13:55:46.354Z,32.96
2023-02-16T13:58:35.771Z,31.39
2023-02-16T14:01:38.744Z,32.19
2023-02-16T14:04:14.040Z,33.13
2023-02-16T14:06:43.925Z,34.16
2023-02-16T14:09:34.765Z,36.51
2023-02-16T14:12:15.556Z,35.93
2023-02-16T14:15:00.411Z,37.12
2023-02-16T14:17:33.594Z,37.69
2023-02-16T14:20:06.646Z,37.66
2023-02-16T14:22:42.547Z,37.48
2023-02-16T14:25:35.219Z,37.62
2023-02-16T14:28:07.032Z,39.29
2023-02-16T14:30:45.938Z,39.20
2023-02-16T14:33:24.503Z,38.85
2023-02-16T14:36:13.862Z,39.07
2023-02-16T14:38:47.226Z,40.24
2023-02-16T14:41:32.297Z,40.20
2023-02-16T14:44:27.928Z,39.26
2023-02-16T14:47:15.557Z,40.02
2023-02-16T14:50:09.365Z,40.87
2023-02-16T14:53:13.449Z,41.19
2023-02-16T14:56:16.834Z,42.32
2023-02-16T14:58:56.326Z,41.60
2023-02-16T15:01:27.484Z,41.31
2023-02-16T15:03:59.088Z,41.93
2023-02-16T15:06:33.902Z,41.36
2023-02-16T15:09:07.311Z,41.33
2023-02-16T15:12:00.410Z,41.29
2023-02-16T15:14:32.593Z,41.66
2023-02-16T15:17:01.962Z,42.91
2023-02-16T15:19:33.400Z,42.20
2023-02-16T15:22:18.971Z,42.34
2023-02-16T15:24:58.815Z,43.46
2023-02-16T15:27:29.446Z,44.31
2023-02-16T15:30:09.481Z,44.51
2023-02-16T15:32:39.243Z,44.86
2023-02-16T15:35:23.186Z,44.10
2023-02-16T15:38:02.408Z,44.67
2023-02-16T15:40:33.060Z,46.07
2023-02-16T15:43:13.346Z,46.08
2023-02-16T15:45:42.978Z,45.68
2023-02-16T15:48:17.390Z,46.72
2023-02-16T15:50:49.012Z,46.62
2023-02-16T15:53:26.139Z,48.27
2023-02-16T15:55:56.194Z,48.22
2023-02-16T15:58:25.656Z,49.05
2023-02-16T16:00:55.467Z,49.08
2023-02-16T16:03:24.924Z,48.81
2023-02-16T16:06:01.483Z,48.51
2023-02-16T16:08:32.078Z,48.66
2023-02-16T16:11:02.445Z,48.34
2023-02-16T16:13:33.110Z,49.94
2023-02-16T16:16:04.846Z,49.91
2023-02-16T16:18:43.336Z,49.27
2023-02-16T16:21:21.778Z,49.12
2023-02-16T16:24:03.609Z,49.32
2023-02-16T16:26:36.418Z,49.88
2023-02-16T16:29:25.998Z,50.11
2023-02-16T16:31:56.498Z,50.16
2023-02-16T16:34:39.164Z,50.99
2023-02-16T16:37:25.210Z,51.10
2023-02-16T16:40:04.451Z,50.87
2023-02-16T16:42:36.962Z,50.56
2023-02-16T16:45:20.484Z,51.39
2023-02-16T16:47:53.118Z,50.48
2023-02-16T16:50:34.708Z,50.53
2023-02-16T16:53:43.070Z,51.48
2023-02-16T16:56:14.007Z,52.71
2023-02-16T16:58:44.015Z,51.81
2023-02-16T17:01:15.985Z,51.19
2023-02-16T17:03:45.912Z,49.51
2023-02-16T17:06:15.453Z,49.25
2023-02-16T17:08:47.208Z,48.53
2023-02-16T17:11:25.030Z,48.61
2023-02-16T17:13:55.532Z,48.40
2023-02-16T17:16:28.395Z,48.54
2023-02-16T17:18:58.197Z,48.67
2023-02-16T17:21:27.484Z,48.73
2023-02-16T17:23:58.735Z,48.50
2023-02-16T17:26:28.617Z,48.50
2023-02-16T17:28:58.287Z,48.98
2023-02-16T17:31:27.720Z,49.10
2023-02-16T17:33:57.949Z,49.17
2023-02-16T17:36:28.570Z,49.26
2023-02-16T17:38:59.604Z,48.86
2023-02-16T17:41:30.950Z,49.83
2023-02-16T17:44:00.776Z,51.52
2023-02-16T17:46:31.781Z,51.56
2023-02-16T17:49:01.441Z,50.58
2023-02-16T17:51:32.271Z,50.13
2023-02-16T17:54:06.392Z,49.91
2023-02-16T17:56:37.407Z,50.17
2023-02-16T17:59:07.413Z,49.45
2023-02-16T18:01:37.788Z,48.87
2023-02-16T18:04:07.724Z,48.98
2023-02-16T18:06:37.426Z,48.59
2023-02-16T18:09:09.165Z,48.44
2023-02-16T18:11:38.769Z,48.40
2023-02-16T18:14:08.356Z,47.82
2023-02-16T18:16:37.586Z,47.47
2023-02-16T18:19:09.053Z,47.66
2023-02-16T18:21:38.896Z,47.70
2023-02-16T18:24:09.977Z,47.57
2023-02-16T18:26:39.565Z,47.86
2023-02-16T18:29:11.089Z,47.66
2023-02-16T18:31:41.184Z,47.82
2023-02-16T18:34:11.836Z,47.71
2023-02-16T18:36:41.496Z,47.38
2023-02-16T18:39:12.812Z,47.44
2023-02-16T18:41:42.228Z,47.44
2023-02-16T18:44:12.136Z,48.17
2023-02-16T18:46:41.524Z,48.02
2023-02-16T18:49:11.174Z,48.27
2023-02-16T18:51:41.284Z,47.97
2023-02-16T18:54:12.354Z,48.29
2023-02-16T18:56:42.429Z,48.40
2023-02-16T18:59:12.362Z,48.59
2023-02-16T19:01:42.207Z,49.19
2023-02-16T19:04:12.355Z,49.11
2023-02-16T19:06:43.082Z,48.98
2023-02-16T19:09:14.458Z,48.83
2023-02-16T19:11:44.073Z,48.81
2023-02-16T19:14:13.827Z,49.46
2023-02-16T19:16:43.512Z,49.37
2023-02-16T19:19:13.409Z,49.50
2023-02-16T19:21:44.757Z,49.31
2023-02-16T19:24:15.890Z,49.49
2023-02-16T19:26:45.262Z,48.95
2023-02-16T19:29:15.521Z,49.62
2023-02-16T19:31:45.265Z,49.62
2023-02-16T19:34:15.091Z,50.05
2023-02-16T19:36:46.569Z,49.22
2023-02-16T19:39:18.193Z,49.81
2023-02-16T19:41:47.992Z,50.30
2023-02-16T19:44:17.968Z,50.00
2023-02-16T19:46:47.384Z,48.98
2023-02-16T19:49:17.542Z,50.13
2023-02-16T19:51:47.820Z,49.70
2023-02-16T19:54:18.668Z,49.39
2023-02-16T19:56:48.025Z,48.81
2023-02-16T19:59:17.954Z,50.56
2023-02-16T20:01:47.489Z,49.95
2023-02-16T20:04:17.170Z,51.03
2023-02-16T20:06:47.413Z,52.25
2023-02-16T20:09:18.864Z,51.52
2023-02-16T20:11:49.852Z,51.36
2023-02-16T20:14:20.019Z,49.92
2023-02-16T20:16:50.420Z,51.42
2023-02-16T20:19:20.375Z,52.48
2023-02-16T20:21:49.864Z,52.54
2023-02-16T20:24:23.585Z,50.94
2023-02-16T20:26:52.890Z,51.95
2023-02-16T20:29:22.987Z,51.51
2023-02-16T20:31:55.567Z,49.95
2023-02-16T20:34:27.662Z,51.44
2023-02-16T20:36:57.336Z,51.96
2023-02-16T20:39:28.740Z,52.18
2023-02-16T20:41:59.394Z,50.79
2023-02-16T20:44:29.117Z,50.82
2023-02-16T20:47:00.451Z,51.48
2023-02-16T20:49:30.224Z,50.25
2023-02-16T20:51:59.604Z,51.21
2023-02-16T20:54:31.256Z,49.58
2023-02-16T20:57:00.526Z,51.05
2023-02-16T20:59:30.598Z,50.79
2023-02-16T21:02:00.281Z,49.94
2023-02-16T21:04:30.364Z,49.48
2023-02-16T21:06:59.594Z,50.88
2023-02-16T21:09:30.882Z,49.32
2023-02-16T21:12:00.195Z,49.42
2023-02-16T21:14:29.760Z,49.40
2023-02-16T21:16:59.032Z,49.46
2023-02-16T21:19:28.697Z,49.73
2023-02-16T21:21:58.251Z,50.26
2023-02-16T21:24:29.180Z,51.16
2023-02-16T21:26:58.590Z,50.50
2023-02-16T21:29:28.277Z,51.49
2023-02-16T21:31:57.515Z,52.00
2023-02-16T21:34:27.227Z,51.32
2023-02-16T21:36:56.518Z,51.19
2023-02-16T21:39:46.190Z,51.04
2023-02-16T21:42:15.798Z,50.97
2023-02-16T21:44:49.998Z,51.66
2023-02-16T21:47:37.281Z,51.84
2023-02-16T21:50:07.496Z,50.72
2023-02-16T21:52:36.847Z,51.16
2023-02-16T21:55:24.762Z,52.41
2023-02-16T21:57:58.814Z,52.89
2023-02-16T22:00:28.833Z,52.84
2023-02-16T22:02:58.672Z,52.92
2023-02-16T22:05:28.278Z,52.63
2023-02-16T22:07:58.802Z,51.97
2023-02-16T22:10:28.912Z,50.88
2023-02-16T22:13:00.055Z,52.93
2023-02-16T22:15:29.934Z,52.36
2023-02-16T22:17:59.351Z,53.63
2023-02-16T22:20:28.905Z,53.09
2023-02-16T22:22:58.348Z,52.48
2023-02-16T22:25:27.795Z,55.01
2023-02-16T22:27:58.484Z,55.31
2023-02-16T22:30:27.993Z,52.54
2023-02-16T22:32:57.300Z,52.77
2023-02-16T22:35:26.810Z,51.83
2023-02-16T22:37:56.102Z,54.33
2023-02-16T22:40:25.816Z,55.14
2023-02-16T22:42:55.069Z,55.74
2023-02-16T22:45:26.085Z,52.37
2023-02-16T22:47:55.250Z,54.55
2023-02-16T22:50:24.963Z,54.61
2023-02-16T22:52:55.026Z,53.29
2023-02-16T22:55:24.985Z,52.61
2023-02-16T22:57:54.542Z,53.17
2023-02-16T23:00:25.546Z,53.90
2023-02-16T23:02:54.911Z,54.85
2023-02-16T23:05:24.549Z,55.02
2023-02-16T23:07:53.789Z,53.66
2023-02-16T23:10:23.323Z,55.83
2023-02-16T23:12:52.510Z,56.09
2023-02-16T23:15:23.093Z,55.25
2023-02-16T23:17:53.752Z,56.37
2023-02-16T23:20:23.544Z,55.20
2023-02-16T23:22:52.938Z,54.46
2023-02-16T23:25:34.529Z,54.72
2023-02-16T23:28:06.064Z,55.75
2023-02-16T23:30:35.655Z,56.28
2023-02-16T23:33:06.300Z,57.14
2023-02-16T23:35:35.915Z,56.02
2023-02-16T23:38:05.331Z,54.84
2023-02-16T23:40:34.942Z,54.35
2023-02-16T23:43:04.198Z,56.17
2023-02-16T23:45:33.820Z,57.24
2023-02-16T23:48:03.270Z,56.26
2023-02-16T23:50:34.162Z,55.80
2023-02-16T23:53:03.681Z,55.11
2023-02-16T23:55:33.281Z,55.66
2023-02-16T23:58:02.565Z,56.30
